sensor_id;sensor_type;location;lat;lon;timestamp;P1;durP1;ratioP1;P2;durP2;ratioP2
7729;SDS011;3908;52.310;7.230;2023-07-28T00:01:57;27.53;;;25.03;;
7729;SDS011;3908;52.310;7.230;2023-07-28T00:04:44;26.90;;;24.70;;
7729;SDS011;3908;52.310;7.230;2023-07-28T00:07:31;27.53;;;25.23;;
7729;SDS011;3908;52.310;7.230;2023-07-28T00:10:20;23.93;;;21.87;;
7729;SDS011;3908;52.310;7.230;2023-07-28T00:13:07;25.20;;;23.10;;
7729;SDS011;3908;52.310;7.230;2023-07-28T00:15:54;25.30;;;22.87;;
7729;SDS011;3908;52.310;7.230;2023-07-28T00:18:41;31.07;;;28.07;;
7729;SDS011;3908;52.310;7.230;2023-07-28T00:21:27;39.83;;;35.53;;
7729;SDS011;3908;52.310;7.230;2023-07-28T00:24:14;30.30;;;27.07;;
7729;SDS011;3908;52.310;7.230;2023-07-28T00:27:03;24.17;;;22.10;;
7729;SDS011;3908;52.310;7.230;2023-07-28T00:29:50;24.90;;;22.80;;
7729;SDS011;3908;52.310;7.230;2023-07-28T00:32:36;22.37;;;20.17;;
7729;SDS011;3908;52.310;7.230;2023-07-28T00:35:23;21.07;;;19.10;;
7729;SDS011;3908;52.310;7.230;2023-07-28T00:38:10;20.30;;;18.43;;
7729;SDS011;3908;52.310;7.230;2023-07-28T00:40:57;23.77;;;21.37;;
7729;SDS011;3908;52.310;7.230;2023-07-28T00:43:45;25.80;;;23.80;;
7729;SDS011;3908;52.310;7.230;2023-07-28T00:46:32;23.93;;;21.53;;
7729;SDS011;3908;52.310;7.230;2023-07-28T00:49:18;24.67;;;22.70;;
7729;SDS011;3908;52.310;7.230;2023-07-28T00:52:06;22.47;;;20.83;;
7729;SDS011;3908;52.310;7.230;2023-07-28T00:54:53;22.77;;;20.47;;
7729;SDS011;3908;52.310;7.230;2023-07-28T00:57:40;21.63;;;19.83;;
7729;SDS011;3908;52.310;7.230;2023-07-28T01:00:28;22.10;;;20.30;;
7729;SDS011;3908;52.310;7.230;2023-07-28T01:03:17;23.70;;;21.70;;
7729;SDS011;3908;52.310;7.230;2023-07-28T01:06:10;22.90;;;20.90;;
7729;SDS011;3908;52.310;7.230;2023-07-28T01:09:01;23.77;;;21.63;;
7729;SDS011;3908;52.310;7.230;2023-07-28T01:11:54;20.77;;;19.07;;
7729;SDS011;3908;52.310;7.230;2023-07-28T01:14:42;25.27;;;22.87;;
7729;SDS011;3908;52.310;7.230;2023-07-28T01:17:31;22.53;;;20.53;;
7729;SDS011;3908;52.310;7.230;2023-07-28T01:20:17;20.60;;;18.63;;
7729;SDS011;3908;52.310;7.230;2023-07-28T01:23:05;22.47;;;20.30;;
7729;SDS011;3908;52.310;7.230;2023-07-28T01:25:55;21.63;;;19.73;;
7729;SDS011;3908;52.310;7.230;2023-07-28T01:28:45;22.77;;;20.87;;
7729;SDS011;3908;52.310;7.230;2023-07-28T01:31:32;22.33;;;20.43;;
7729;SDS011;3908;52.310;7.230;2023-07-28T01:34:19;19.47;;;17.77;;
7729;SDS011;3908;52.310;7.230;2023-07-28T01:37:06;22.00;;;20.00;;
7729;SDS011;3908;52.310;7.230;2023-07-28T01:39:53;20.20;;;18.37;;
7729;SDS011;3908;52.310;7.230;2023-07-28T01:42:40;24.20;;;18.88;;
7729;SDS011;3908;52.310;7.230;2023-07-28T01:45:28;18.40;;;16.73;;
7729;SDS011;3908;52.310;7.230;2023-07-28T01:48:14;20.83;;;17.33;;
7729;SDS011;3908;52.310;7.230;2023-07-28T01:51:01;19.37;;;17.57;;
7729;SDS011;3908;52.310;7.230;2023-07-28T01:53:48;16.33;;;14.63;;
7729;SDS011;3908;52.310;7.230;2023-07-28T01:56:35;16.13;;;14.47;;
7729;SDS011;3908;52.310;7.230;2023-07-28T01:59:21;17.43;;;15.77;;
7729;SDS011;3908;52.310;7.230;2023-07-28T02:02:10;17.60;;;15.67;;
7729;SDS011;3908;52.310;7.230;2023-07-28T02:04:56;16.30;;;14.80;;
7729;SDS011;3908;52.310;7.230;2023-07-28T02:07:43;18.63;;;17.17;;
7729;SDS011;3908;52.310;7.230;2023-07-28T02:10:30;18.97;;;17.10;;
7729;SDS011;3908;52.310;7.230;2023-07-28T02:13:17;14.40;;;13.00;;
7729;SDS011;3908;52.310;7.230;2023-07-28T02:16:04;18.40;;;14.93;;
7729;SDS011;3908;52.310;7.230;2023-07-28T02:18:52;16.60;;;14.83;;
7729;SDS011;3908;52.310;7.230;2023-07-28T02:21:39;18.93;;;14.40;;
7729;SDS011;3908;52.310;7.230;2023-07-28T02:24:25;19.73;;;17.27;;
7729;SDS011;3908;52.310;7.230;2023-07-28T02:27:12;17.83;;;16.00;;
7729;SDS011;3908;52.310;7.230;2023-07-28T02:29:59;26.10;;;18.00;;
7729;SDS011;3908;52.310;7.230;2023-07-28T02:32:46;23.23;;;18.57;;
7729;SDS011;3908;52.310;7.230;2023-07-28T02:35:34;24.07;;;18.70;;
7729;SDS011;3908;52.310;7.230;2023-07-28T02:38:21;19.57;;;17.50;;
7729;SDS011;3908;52.310;7.230;2023-07-28T02:41:04;28.47;;;19.70;;
7729;SDS011;3908;52.310;7.230;2023-07-28T02:43:51;22.77;;;19.83;;
7729;SDS011;3908;52.310;7.230;2023-07-28T02:46:38;26.80;;;20.27;;
7729;SDS011;3908;52.310;7.230;2023-07-28T02:49:24;24.90;;;20.67;;
7729;SDS011;3908;52.310;7.230;2023-07-28T02:52:11;25.70;;;22.93;;
7729;SDS011;3908;52.310;7.230;2023-07-28T02:54:58;25.97;;;20.10;;
7729;SDS011;3908;52.310;7.230;2023-07-28T02:57:46;21.30;;;18.93;;
7729;SDS011;3908;52.310;7.230;2023-07-28T03:00:33;22.63;;;19.87;;
7729;SDS011;3908;52.310;7.230;2023-07-28T03:03:19;26.83;;;22.23;;
7729;SDS011;3908;52.310;7.230;2023-07-28T03:06:06;37.17;;;31.80;;
7729;SDS011;3908;52.310;7.230;2023-07-28T03:08:53;33.67;;;27.53;;
7729;SDS011;3908;52.310;7.230;2023-07-28T03:11:41;29.93;;;25.63;;
7729;SDS011;3908;52.310;7.230;2023-07-28T03:14:29;25.03;;;21.30;;
7729;SDS011;3908;52.310;7.230;2023-07-28T03:17:16;28.20;;;20.77;;
7729;SDS011;3908;52.310;7.230;2023-07-28T03:20:03;25.40;;;22.63;;
7729;SDS011;3908;52.310;7.230;2023-07-28T03:22:49;28.77;;;21.73;;
7729;SDS011;3908;52.310;7.230;2023-07-28T03:25:36;22.47;;;20.23;;
7729;SDS011;3908;52.310;7.230;2023-07-28T03:28:23;23.90;;;21.60;;
7729;SDS011;3908;52.310;7.230;2023-07-28T03:31:11;25.20;;;23.10;;
7729;SDS011;3908;52.310;7.230;2023-07-28T03:33:58;23.00;;;20.87;;
7729;SDS011;3908;52.310;7.230;2023-07-28T03:36:45;22.23;;;20.23;;
7729;SDS011;3908;52.310;7.230;2023-07-28T03:39:32;18.87;;;16.87;;
7729;SDS011;3908;52.310;7.230;2023-07-28T03:42:18;21.67;;;18.27;;
7729;SDS011;3908;52.310;7.230;2023-07-28T03:45:06;20.27;;;18.37;;
7729;SDS011;3908;52.310;7.230;2023-07-28T03:47:54;21.60;;;19.60;;
7729;SDS011;3908;52.310;7.230;2023-07-28T03:50:41;22.60;;;20.47;;
7729;SDS011;3908;52.310;7.230;2023-07-28T03:53:28;22.03;;;19.93;;
7729;SDS011;3908;52.310;7.230;2023-07-28T03:56:14;20.47;;;18.37;;
7729;SDS011;3908;52.310;7.230;2023-07-28T03:59:01;20.30;;;18.33;;
7729;SDS011;3908;52.310;7.230;2023-07-28T04:01:48;21.10;;;18.07;;
7729;SDS011;3908;52.310;7.230;2023-07-28T04:04:36;21.10;;;18.93;;
7729;SDS011;3908;52.310;7.230;2023-07-28T04:07:23;21.00;;;19.00;;
7729;SDS011;3908;52.310;7.230;2023-07-28T04:10:10;22.30;;;20.17;;
7729;SDS011;3908;52.310;7.230;2023-07-28T04:12:57;20.40;;;18.60;;
7729;SDS011;3908;52.310;7.230;2023-07-28T04:15:44;24.47;;;20.70;;
7729;SDS011;3908;52.310;7.230;2023-07-28T04:18:30;24.53;;;22.03;;
7729;SDS011;3908;52.310;7.230;2023-07-28T04:21:19;19.03;;;17.03;;
7729;SDS011;3908;52.310;7.230;2023-07-28T04:24:06;23.37;;;20.87;;
7729;SDS011;3908;52.310;7.230;2023-07-28T04:26:53;24.17;;;19.93;;
7729;SDS011;3908;52.310;7.230;2023-07-28T04:29:40;29.20;;;19.73;;
7729;SDS011;3908;52.310;7.230;2023-07-28T04:32:27;24.80;;;19.10;;
7729;SDS011;3908;52.310;7.230;2023-07-28T04:35:13;21.43;;;19.30;;
7729;SDS011;3908;52.310;7.230;2023-07-28T04:38:02;27.77;;;25.23;;
7729;SDS011;3908;52.310;7.230;2023-07-28T04:40:49;28.87;;;26.47;;
7729;SDS011;3908;52.310;7.230;2023-07-28T04:43:35;32.70;;;30.03;;
7729;SDS011;3908;52.310;7.230;2023-07-28T04:46:22;32.13;;;29.63;;
7729;SDS011;3908;52.310;7.230;2023-07-28T04:49:09;31.87;;;29.37;;
7729;SDS011;3908;52.310;7.230;2023-07-28T04:51:56;31.77;;;29.20;;
7729;SDS011;3908;52.310;7.230;2023-07-28T04:54:44;30.37;;;27.53;;
7729;SDS011;3908;52.310;7.230;2023-07-28T04:57:30;28.80;;;26.07;;
7729;SDS011;3908;52.310;7.230;2023-07-28T05:00:17;28.63;;;26.33;;
7729;SDS011;3908;52.310;7.230;2023-07-28T05:03:04;28.90;;;26.57;;
7729;SDS011;3908;52.310;7.230;2023-07-28T05:05:51;26.60;;;24.30;;
7729;SDS011;3908;52.310;7.230;2023-07-28T05:08:38;24.30;;;22.17;;
7729;SDS011;3908;52.310;7.230;2023-07-28T05:11:26;28.27;;;25.33;;
7729;SDS011;3908;52.310;7.230;2023-07-28T05:14:13;26.87;;;24.10;;
7729;SDS011;3908;52.310;7.230;2023-07-28T05:16:59;25.57;;;23.27;;
7729;SDS011;3908;52.310;7.230;2023-07-28T05:19:46;24.97;;;22.70;;
7729;SDS011;3908;52.310;7.230;2023-07-28T05:22:33;26.27;;;23.70;;
7729;SDS011;3908;52.310;7.230;2023-07-28T05:25:20;26.10;;;23.50;;
7729;SDS011;3908;52.310;7.230;2023-07-28T05:28:09;25.47;;;22.70;;
7729;SDS011;3908;52.310;7.230;2023-07-28T05:31:02;28.90;;;23.87;;
7729;SDS011;3908;52.310;7.230;2023-07-28T05:33:49;28.83;;;26.03;;
7729;SDS011;3908;52.310;7.230;2023-07-28T05:36:39;27.57;;;24.87;;
7729;SDS011;3908;52.310;7.230;2023-07-28T05:39:26;24.63;;;22.10;;
7729;SDS011;3908;52.310;7.230;2023-07-28T05:42:13;25.53;;;23.23;;
7729;SDS011;3908;52.310;7.230;2023-07-28T05:45:01;28.40;;;25.57;;
7729;SDS011;3908;52.310;7.230;2023-07-28T05:47:48;29.50;;;27.20;;
7729;SDS011;3908;52.310;7.230;2023-07-28T05:50:37;23.83;;;21.70;;
7729;SDS011;3908;52.310;7.230;2023-07-28T05:53:24;19.90;;;17.38;;
7729;SDS011;3908;52.310;7.230;2023-07-28T05:56:12;21.37;;;19.27;;
7729;SDS011;3908;52.310;7.230;2023-07-28T05:58:59;23.25;;;20.90;;
7729;SDS011;3908;52.310;7.230;2023-07-28T06:01:47;17.63;;;15.18;;
7729;SDS011;3908;52.310;7.230;2023-07-28T06:04:34;34.80;;;32.10;;
7729;SDS011;3908;52.310;7.230;2023-07-28T06:07:21;17.17;;;13.02;;
7729;SDS011;3908;52.310;7.230;2023-07-28T06:10:08;20.52;;;18.90;;
7729;SDS011;3908;52.310;7.230;2023-07-28T06:12:55;22.17;;;20.15;;
7729;SDS011;3908;52.310;7.230;2023-07-28T06:15:42;17.48;;;10.05;;
7729;SDS011;3908;52.310;7.230;2023-07-28T06:18:30;50.80;;;47.53;;
7729;SDS011;3908;52.310;7.230;2023-07-28T06:21:17;62.20;;;58.53;;
7729;SDS011;3908;52.310;7.230;2023-07-28T06:24:03;53.20;;;49.72;;
7729;SDS011;3908;52.310;7.230;2023-07-28T06:26:51;38.10;;;35.47;;
7729;SDS011;3908;52.310;7.230;2023-07-28T06:29:39;64.82;;;60.92;;
7729;SDS011;3908;52.310;7.230;2023-07-28T06:32:26;44.55;;;41.55;;
7729;SDS011;3908;52.310;7.230;2023-07-28T06:35:14;36.95;;;34.20;;
7729;SDS011;3908;52.310;7.230;2023-07-28T06:38:03;31.80;;;29.15;;
7729;SDS011;3908;52.310;7.230;2023-07-28T06:40:49;19.70;;;17.70;;
7729;SDS011;3908;52.310;7.230;2023-07-28T06:43:36;15.45;;;13.65;;
7729;SDS011;3908;52.310;7.230;2023-07-28T06:46:23;17.00;;;14.77;;
7729;SDS011;3908;52.310;7.230;2023-07-28T06:49:10;30.73;;;28.27;;
7729;SDS011;3908;52.310;7.230;2023-07-28T06:51:58;48.95;;;45.90;;
7729;SDS011;3908;52.310;7.230;2023-07-28T06:54:45;68.13;;;63.92;;
7729;SDS011;3908;52.310;7.230;2023-07-28T06:57:32;27.33;;;24.95;;
7729;SDS011;3908;52.310;7.230;2023-07-28T07:00:20;30.08;;;27.75;;
7729;SDS011;3908;52.310;7.230;2023-07-28T07:03:07;39.00;;;36.40;;
7729;SDS011;3908;52.310;7.230;2023-07-28T07:05:54;18.27;;;16.63;;
7729;SDS011;3908;52.310;7.230;2023-07-28T07:08:42;27.40;;;25.02;;
7729;SDS011;3908;52.310;7.230;2023-07-28T07:11:29;52.30;;;49.42;;
7729;SDS011;3908;52.310;7.230;2023-07-28T07:14:16;24.42;;;22.63;;
7729;SDS011;3908;52.310;7.230;2023-07-28T07:17:04;19.48;;;17.85;;
7729;SDS011;3908;52.310;7.230;2023-07-28T07:19:51;13.00;;;11.50;;
7729;SDS011;3908;52.310;7.230;2023-07-28T07:22:37;28.05;;;25.85;;
7729;SDS011;3908;52.310;7.230;2023-07-28T07:25:26;26.13;;;24.17;;
7729;SDS011;3908;52.310;7.230;2023-07-28T07:28:13;40.78;;;37.72;;
7729;SDS011;3908;52.310;7.230;2023-07-28T07:30:59;22.30;;;20.52;;
7729;SDS011;3908;52.310;7.230;2023-07-28T07:33:46;40.72;;;37.92;;
7729;SDS011;3908;52.310;7.230;2023-07-28T07:36:33;23.60;;;21.75;;
7729;SDS011;3908;52.310;7.230;2023-07-28T07:39:20;33.90;;;31.38;;
7729;SDS011;3908;52.310;7.230;2023-07-28T07:42:09;18.67;;;15.07;;
7729;SDS011;3908;52.310;7.230;2023-07-28T07:44:56;24.58;;;16.23;;
7729;SDS011;3908;52.310;7.230;2023-07-28T07:47:42;22.90;;;15.95;;
7729;SDS011;3908;52.310;7.230;2023-07-28T07:50:29;18.58;;;15.65;;
7729;SDS011;3908;52.310;7.230;2023-07-28T07:53:16;23.02;;;21.08;;
7729;SDS011;3908;52.310;7.230;2023-07-28T07:56:03;18.95;;;17.35;;
7729;SDS011;3908;52.310;7.230;2023-07-28T07:58:51;21.52;;;19.75;;
7729;SDS011;3908;52.310;7.230;2023-07-28T08:01:38;20.00;;;18.40;;
7729;SDS011;3908;52.310;7.230;2023-07-28T08:04:25;20.52;;;18.80;;
7729;SDS011;3908;52.310;7.230;2023-07-28T08:07:13;25.13;;;23.35;;
7729;SDS011;3908;52.310;7.230;2023-07-28T08:10:01;19.63;;;18.40;;
7729;SDS011;3908;52.310;7.230;2023-07-28T08:12:48;12.18;;;11.27;;
7729;SDS011;3908;52.310;7.230;2023-07-28T08:15:36;14.27;;;13.15;;
7729;SDS011;3908;52.310;7.230;2023-07-28T08:18:23;28.00;;;26.55;;
7729;SDS011;3908;52.310;7.230;2023-07-28T08:21:10;21.45;;;20.30;;
7729;SDS011;3908;52.310;7.230;2023-07-28T08:23:56;39.15;;;37.28;;
7729;SDS011;3908;52.310;7.230;2023-07-28T08:26:43;47.45;;;45.17;;
7729;SDS011;3908;52.310;7.230;2023-07-28T08:29:30;33.05;;;31.50;;
7729;SDS011;3908;52.310;7.230;2023-07-28T08:32:18;28.65;;;27.27;;
7729;SDS011;3908;52.310;7.230;2023-07-28T08:35:05;17.55;;;16.65;;
7729;SDS011;3908;52.310;7.230;2023-07-28T08:37:53;50.10;;;47.63;;
7729;SDS011;3908;52.310;7.230;2023-07-28T08:40:40;19.20;;;18.20;;
7729;SDS011;3908;52.310;7.230;2023-07-28T08:43:27;18.42;;;17.27;;
7729;SDS011;3908;52.310;7.230;2023-07-28T08:46:13;13.30;;;12.50;;
7729;SDS011;3908;52.310;7.230;2023-07-28T08:49:02;24.90;;;23.23;;
7729;SDS011;3908;52.310;7.230;2023-07-28T08:51:49;49.45;;;47.10;;
7729;SDS011;3908;52.310;7.230;2023-07-28T08:54:35;39.42;;;37.42;;
7729;SDS011;3908;52.310;7.230;2023-07-28T08:57:22;28.20;;;26.75;;
7729;SDS011;3908;52.310;7.230;2023-07-28T09:00:10;41.13;;;38.78;;
7729;SDS011;3908;52.310;7.230;2023-07-28T09:02:59;26.90;;;25.15;;
7729;SDS011;3908;52.310;7.230;2023-07-28T09:05:48;19.52;;;18.05;;
7729;SDS011;3908;52.310;7.230;2023-07-28T09:08:35;20.90;;;19.48;;
7729;SDS011;3908;52.310;7.230;2023-07-28T09:11:22;16.60;;;15.32;;
7729;SDS011;3908;52.310;7.230;2023-07-28T09:14:12;14.95;;;13.73;;
7729;SDS011;3908;52.310;7.230;2023-07-28T09:17:05;14.13;;;12.93;;
7729;SDS011;3908;52.310;7.230;2023-07-28T09:19:52;11.48;;;10.27;;
7729;SDS011;3908;52.310;7.230;2023-07-28T09:22:41;11.55;;;10.38;;
7729;SDS011;3908;52.310;7.230;2023-07-28T09:25:28;13.40;;;12.30;;
7729;SDS011;3908;52.310;7.230;2023-07-28T09:28:15;12.88;;;11.77;;
7729;SDS011;3908;52.310;7.230;2023-07-28T09:31:02;11.55;;;10.63;;
7729;SDS011;3908;52.310;7.230;2023-07-28T09:33:50;15.10;;;13.60;;
7729;SDS011;3908;52.310;7.230;2023-07-28T09:36:37;14.45;;;13.07;;
7729;SDS011;3908;52.310;7.230;2023-07-28T09:39:26;11.20;;;10.15;;
7729;SDS011;3908;52.310;7.230;2023-07-28T09:42:13;12.32;;;11.27;;
7729;SDS011;3908;52.310;7.230;2023-07-28T09:45:00;13.07;;;12.07;;
7729;SDS011;3908;52.310;7.230;2023-07-28T09:47:47;12.50;;;11.48;;
7729;SDS011;3908;52.310;7.230;2023-07-28T09:50:35;12.90;;;11.88;;
7729;SDS011;3908;52.310;7.230;2023-07-28T09:53:23;12.77;;;11.50;;
7729;SDS011;3908;52.310;7.230;2023-07-28T09:56:14;16.42;;;14.80;;
7729;SDS011;3908;52.310;7.230;2023-07-28T09:59:02;19.77;;;17.35;;
7729;SDS011;3908;52.310;7.230;2023-07-28T10:01:50;20.88;;;18.98;;
7729;SDS011;3908;52.310;7.230;2023-07-28T10:04:37;22.98;;;20.83;;
7729;SDS011;3908;52.310;7.230;2023-07-28T10:07:24;25.05;;;22.85;;
7729;SDS011;3908;52.310;7.230;2023-07-28T10:10:12;16.05;;;13.02;;
7729;SDS011;3908;52.310;7.230;2023-07-28T10:13:00;17.75;;;14.73;;
7729;SDS011;3908;52.310;7.230;2023-07-28T10:15:48;22.60;;;20.40;;
7729;SDS011;3908;52.310;7.230;2023-07-28T10:18:35;22.20;;;20.08;;
7729;SDS011;3908;52.310;7.230;2023-07-28T10:21:22;19.85;;;17.30;;
7729;SDS011;3908;52.310;7.230;2023-07-28T10:24:14;20.13;;;17.00;;
7729;SDS011;3908;52.310;7.230;2023-07-28T10:27:00;17.83;;;13.73;;
7729;SDS011;3908;52.310;7.230;2023-07-28T10:29:56;18.38;;;14.82;;
7729;SDS011;3908;52.310;7.230;2023-07-28T10:32:45;19.75;;;15.65;;
7729;SDS011;3908;52.310;7.230;2023-07-28T10:35:32;21.35;;;17.35;;
7729;SDS011;3908;52.310;7.230;2023-07-28T10:38:29;25.63;;;19.38;;
7729;SDS011;3908;52.310;7.230;2023-07-28T10:41:17;20.02;;;17.45;;
7729;SDS011;3908;52.310;7.230;2023-07-28T10:44:04;22.85;;;16.00;;
7729;SDS011;3908;52.310;7.230;2023-07-28T10:46:52;20.48;;;16.30;;
7729;SDS011;3908;52.310;7.230;2023-07-28T10:49:39;20.33;;;15.18;;
7729;SDS011;3908;52.310;7.230;2023-07-28T10:52:26;20.15;;;17.25;;
7729;SDS011;3908;52.310;7.230;2023-07-28T10:55:13;38.03;;;35.30;;
7729;SDS011;3908;52.310;7.230;2023-07-28T10:58:00;40.67;;;37.55;;
7729;SDS011;3908;52.310;7.230;2023-07-28T11:00:47;27.92;;;25.50;;
7729;SDS011;3908;52.310;7.230;2023-07-28T11:03:38;20.38;;;18.25;;
7729;SDS011;3908;52.310;7.230;2023-07-28T11:06:26;25.95;;;23.55;;
7729;SDS011;3908;52.310;7.230;2023-07-28T11:09:14;13.90;;;10.00;;
7729;SDS011;3908;52.310;7.230;2023-07-28T11:12:01;34.10;;;31.15;;
7729;SDS011;3908;52.310;7.230;2023-07-28T11:14:47;25.00;;;22.73;;
7729;SDS011;3908;52.310;7.230;2023-07-28T11:17:35;22.90;;;20.73;;
7729;SDS011;3908;52.310;7.230;2023-07-28T11:20:24;29.27;;;27.00;;
7729;SDS011;3908;52.310;7.230;2023-07-28T11:23:13;42.85;;;39.60;;
7729;SDS011;3908;52.310;7.230;2023-07-28T11:26:00;42.70;;;39.50;;
7729;SDS011;3908;52.310;7.230;2023-07-28T11:28:47;51.58;;;47.92;;
7729;SDS011;3908;52.310;7.230;2023-07-28T11:31:34;45.65;;;42.15;;
7729;SDS011;3908;52.310;7.230;2023-07-28T11:34:21;42.35;;;39.47;;
7729;SDS011;3908;52.310;7.230;2023-07-28T11:37:09;49.35;;;46.20;;
7729;SDS011;3908;52.310;7.230;2023-07-28T11:39:57;42.85;;;39.90;;
7729;SDS011;3908;52.310;7.230;2023-07-28T11:42:46;38.33;;;35.72;;
7729;SDS011;3908;52.310;7.230;2023-07-28T11:45:33;38.08;;;35.42;;
7729;SDS011;3908;52.310;7.230;2023-07-28T11:48:20;15.55;;;13.75;;
7729;SDS011;3908;52.310;7.230;2023-07-28T11:51:07;35.67;;;32.90;;
7729;SDS011;3908;52.310;7.230;2023-07-28T11:54:00;32.22;;;30.10;;
7729;SDS011;3908;52.310;7.230;2023-07-28T11:56:47;42.10;;;39.42;;
7729;SDS011;3908;52.310;7.230;2023-07-28T11:59:34;45.70;;;42.83;;
7729;SDS011;3908;52.310;7.230;2023-07-28T12:02:25;34.83;;;32.53;;
7729;SDS011;3908;52.310;7.230;2023-07-28T12:05:12;43.40;;;40.75;;
7729;SDS011;3908;52.310;7.230;2023-07-28T12:07:59;32.85;;;30.95;;
7729;SDS011;3908;52.310;7.230;2023-07-28T12:10:54;53.00;;;50.15;;
7729;SDS011;3908;52.310;7.230;2023-07-28T12:13:48;46.47;;;43.55;;
7729;SDS011;3908;52.310;7.230;2023-07-28T12:16:38;38.30;;;36.20;;
7729;SDS011;3908;52.310;7.230;2023-07-28T12:19:25;29.38;;;27.58;;
7729;SDS011;3908;52.310;7.230;2023-07-28T12:22:12;30.38;;;28.33;;
7729;SDS011;3908;52.310;7.230;2023-07-28T12:24:59;40.13;;;37.53;;
7729;SDS011;3908;52.310;7.230;2023-07-28T12:27:47;23.27;;;21.38;;
7729;SDS011;3908;52.310;7.230;2023-07-28T12:30:34;54.28;;;51.25;;
7729;SDS011;3908;52.310;7.230;2023-07-28T12:33:21;65.07;;;61.38;;
7729;SDS011;3908;52.310;7.230;2023-07-28T12:36:08;56.60;;;53.53;;
7729;SDS011;3908;52.310;7.230;2023-07-28T12:38:55;77.75;;;73.80;;
7729;SDS011;3908;52.310;7.230;2023-07-28T12:41:41;44.10;;;41.72;;
7729;SDS011;3908;52.310;7.230;2023-07-28T12:44:31;41.33;;;39.13;;
7729;SDS011;3908;52.310;7.230;2023-07-28T12:47:18;36.20;;;34.05;;
7729;SDS011;3908;52.310;7.230;2023-07-28T12:50:05;36.00;;;34.03;;
7729;SDS011;3908;52.310;7.230;2023-07-28T12:52:53;69.93;;;66.72;;
7729;SDS011;3908;52.310;7.230;2023-07-28T12:55:39;53.67;;;50.95;;
7729;SDS011;3908;52.310;7.230;2023-07-28T12:58:26;141.48;;;135.20;;
7729;SDS011;3908;52.310;7.230;2023-07-28T13:01:15;84.90;;;80.55;;
7729;SDS011;3908;52.310;7.230;2023-07-28T13:04:02;97.07;;;92.15;;
7729;SDS011;3908;52.310;7.230;2023-07-28T13:06:49;106.75;;;101.38;;
7729;SDS011;3908;52.310;7.230;2023-07-28T13:09:35;95.68;;;90.93;;
7729;SDS011;3908;52.310;7.230;2023-07-28T13:12:22;67.93;;;63.97;;
7729;SDS011;3908;52.310;7.230;2023-07-28T13:15:09;65.90;;;62.22;;
7729;SDS011;3908;52.310;7.230;2023-07-28T13:17:58;71.43;;;67.18;;
7729;SDS011;3908;52.310;7.230;2023-07-28T13:20:44;69.38;;;65.70;;
7729;SDS011;3908;52.310;7.230;2023-07-28T13:23:31;67.22;;;63.83;;
7729;SDS011;3908;52.310;7.230;2023-07-28T13:26:18;68.30;;;64.40;;
7729;SDS011;3908;52.310;7.230;2023-07-28T13:29:05;71.35;;;67.75;;
7729;SDS011;3908;52.310;7.230;2023-07-28T13:31:57;75.15;;;71.50;;
7729;SDS011;3908;52.310;7.230;2023-07-28T13:34:46;68.85;;;65.35;;
7729;SDS011;3908;52.310;7.230;2023-07-28T13:37:32;113.18;;;107.80;;
7729;SDS011;3908;52.310;7.230;2023-07-28T13:40:19;92.60;;;88.07;;
7729;SDS011;3908;52.310;7.230;2023-07-28T13:43:06;111.38;;;106.28;;
7729;SDS011;3908;52.310;7.230;2023-07-28T13:45:53;77.07;;;72.75;;
7729;SDS011;3908;52.310;7.230;2023-07-28T13:48:40;72.43;;;68.80;;
7729;SDS011;3908;52.310;7.230;2023-07-28T13:51:28;132.02;;;125.97;;
7729;SDS011;3908;52.310;7.230;2023-07-28T13:54:15;194.52;;;185.38;;
7729;SDS011;3908;52.310;7.230;2023-07-28T13:57:01;194.65;;;184.98;;
7729;SDS011;3908;52.310;7.230;2023-07-28T13:59:48;151.48;;;143.48;;
7729;SDS011;3908;52.310;7.230;2023-07-28T14:02:35;120.38;;;113.97;;
7729;SDS011;3908;52.310;7.230;2023-07-28T14:05:22;180.85;;;172.52;;
7729;SDS011;3908;52.310;7.230;2023-07-28T14:08:10;167.93;;;159.98;;
7729;SDS011;3908;52.310;7.230;2023-07-28T14:10:57;173.23;;;164.00;;
7729;SDS011;3908;52.310;7.230;2023-07-28T14:13:44;188.25;;;178.65;;
7729;SDS011;3908;52.310;7.230;2023-07-28T14:16:31;234.20;;;222.57;;
7729;SDS011;3908;52.310;7.230;2023-07-28T14:19:17;187.07;;;178.30;;
7729;SDS011;3908;52.310;7.230;2023-07-28T14:22:04;213.38;;;203.38;;
7729;SDS011;3908;52.310;7.230;2023-07-28T14:24:53;191.93;;;181.85;;
7729;SDS011;3908;52.310;7.230;2023-07-28T14:27:39;227.15;;;216.18;;
7729;SDS011;3908;52.310;7.230;2023-07-28T14:30:26;220.88;;;210.68;;
7729;SDS011;3908;52.310;7.230;2023-07-28T14:33:14;154.77;;;148.00;;
7729;SDS011;3908;52.310;7.230;2023-07-28T14:36:01;195.43;;;186.40;;
7729;SDS011;3908;52.310;7.230;2023-07-28T14:38:48;168.75;;;159.52;;
7729;SDS011;3908;52.310;7.230;2023-07-28T14:41:36;210.07;;;199.73;;
7729;SDS011;3908;52.310;7.230;2023-07-28T14:44:23;218.75;;;208.35;;
7729;SDS011;3908;52.310;7.230;2023-07-28T14:47:10;208.25;;;198.32;;
7729;SDS011;3908;52.310;7.230;2023-07-28T14:49:56;247.45;;;235.20;;
7729;SDS011;3908;52.310;7.230;2023-07-28T14:52:44;180.90;;;171.50;;
7729;SDS011;3908;52.310;7.230;2023-07-28T14:55:30;145.30;;;137.68;;
7729;SDS011;3908;52.310;7.230;2023-07-28T14:58:18;123.82;;;117.13;;
7729;SDS011;3908;52.310;7.230;2023-07-28T15:01:05;109.03;;;103.07;;
7729;SDS011;3908;52.310;7.230;2023-07-28T15:03:52;114.13;;;108.22;;
7729;SDS011;3908;52.310;7.230;2023-07-28T15:06:40;116.75;;;110.75;;
7729;SDS011;3908;52.310;7.230;2023-07-28T15:09:26;115.05;;;108.90;;
7729;SDS011;3908;52.310;7.230;2023-07-28T15:12:13;136.15;;;129.45;;
7729;SDS011;3908;52.310;7.230;2023-07-28T15:15:01;128.23;;;121.78;;
7729;SDS011;3908;52.310;7.230;2023-07-28T15:17:48;210.30;;;199.65;;
7729;SDS011;3908;52.310;7.230;2023-07-28T15:20:35;205.35;;;194.98;;
7729;SDS011;3908;52.310;7.230;2023-07-28T15:23:22;259.77;;;246.82;;
7729;SDS011;3908;52.310;7.230;2023-07-28T15:26:09;289.48;;;274.80;;
7729;SDS011;3908;52.310;7.230;2023-07-28T15:28:56;230.93;;;219.85;;
7729;SDS011;3908;52.310;7.230;2023-07-28T15:31:44;256.67;;;244.05;;
7729;SDS011;3908;52.310;7.230;2023-07-28T15:34:31;321.20;;;304.50;;
7729;SDS011;3908;52.310;7.230;2023-07-28T15:37:19;337.15;;;319.27;;
7729;SDS011;3908;52.310;7.230;2023-07-28T15:40:07;328.65;;;311.77;;
7729;SDS011;3908;52.310;7.230;2023-07-28T15:42:54;257.08;;;244.85;;
7729;SDS011;3908;52.310;7.230;2023-07-28T15:45:41;270.65;;;257.90;;
7729;SDS011;3908;52.310;7.230;2023-07-28T15:48:29;235.82;;;224.75;;
7729;SDS011;3908;52.310;7.230;2023-07-28T15:51:16;194.50;;;185.52;;
7729;SDS011;3908;52.310;7.230;2023-07-28T15:54:03;143.13;;;136.55;;
7729;SDS011;3908;52.310;7.230;2023-07-28T15:56:51;167.57;;;159.95;;
7729;SDS011;3908;52.310;7.230;2023-07-28T15:59:37;140.98;;;134.43;;
7729;SDS011;3908;52.310;7.230;2023-07-28T16:02:24;232.85;;;222.00;;
7729;SDS011;3908;52.310;7.230;2023-07-28T16:05:13;237.85;;;227.05;;
7729;SDS011;3908;52.310;7.230;2023-07-28T16:08:00;188.55;;;179.80;;
7729;SDS011;3908;52.310;7.230;2023-07-28T16:10:46;214.23;;;204.40;;
7729;SDS011;3908;52.310;7.230;2023-07-28T16:13:33;160.75;;;153.10;;
7729;SDS011;3908;52.310;7.230;2023-07-28T16:16:20;170.65;;;162.70;;
7729;SDS011;3908;52.310;7.230;2023-07-28T16:19:07;187.75;;;179.10;;
7729;SDS011;3908;52.310;7.230;2023-07-28T16:21:55;227.32;;;217.00;;
7729;SDS011;3908;52.310;7.230;2023-07-28T16:24:43;161.18;;;153.65;;
7729;SDS011;3908;52.310;7.230;2023-07-28T16:27:30;141.23;;;134.75;;
7729;SDS011;3908;52.310;7.230;2023-07-28T16:30:17;201.18;;;191.85;;
7729;SDS011;3908;52.310;7.230;2023-07-28T16:33:04;177.27;;;169.23;;
7729;SDS011;3908;52.310;7.230;2023-07-28T16:35:50;158.35;;;151.23;;
7729;SDS011;3908;52.310;7.230;2023-07-28T16:38:38;120.38;;;114.75;;
7729;SDS011;3908;52.310;7.230;2023-07-28T16:41:25;129.95;;;123.80;;
7729;SDS011;3908;52.310;7.230;2023-07-28T16:44:12;182.68;;;174.27;;